2CL1 weather

Canyon Creek Heliport
Morgan Hill, California, United States

Public forecast

Using degrees Fahrenheit for public forecast. Weather courtesy of forecast.io.

METAR (pilot weather report)

Closest report is San Martin Airport, 9.7 nm (18.0 km) E. Retrieved UTC (0 seconds ago):

TAF (pilot weather forecast)

Closest forecast is Norman Y. Mineta San Jose International Airport, 16.5 nm (30.6 km) NNW. Retrieved 2019/09/21 06:24 UTC (6 hours ago):

TAF KSJC 210521Z 2106/2206 31005KT P6SM SKC FM210800 14003KT P6SM SKC FM212000 33010KT P6SM SKC FM220400 32004KT P6SM SKC